sensor_id;sensor_type;location;lat;lon;timestamp;temperature;humidity
44166;DHT22;30476;53.468;9.826;2023-04-16T00:01:42;10.30;99.90
44166;DHT22;30476;53.468;9.826;2023-04-16T00:04:08;10.30;99.90
44166;DHT22;30476;53.468;9.826;2023-04-16T00:06:34;10.30;99.90
44166;DHT22;30476;53.468;9.826;2023-04-16T00:08:59;10.30;99.90
44166;DHT22;30476;53.468;9.826;2023-04-16T00:11:25;10.30;99.90
44166;DHT22;30476;53.468;9.826;2023-04-16T00:13:52;10.30;99.90
44166;DHT22;30476;53.468;9.826;2023-04-16T00:16:17;10.30;99.90
44166;DHT22;30476;53.468;9.826;2023-04-16T00:18:43;10.30;99.90
44166;DHT22;30476;53.468;9.826;2023-04-16T00:21:08;10.30;99.90
44166;DHT22;30476;53.468;9.826;2023-04-16T00:23:34;10.30;99.90
44166;DHT22;30476;53.468;9.826;2023-04-16T00:26:00;10.20;99.90
44166;DHT22;30476;53.468;9.826;2023-04-16T00:28:26;10.30;99.90
44166;DHT22;30476;53.468;9.826;2023-04-16T00:30:52;10.30;99.90
44166;DHT22;30476;53.468;9.826;2023-04-16T00:33:18;10.30;99.90
44166;DHT22;30476;53.468;9.826;2023-04-16T00:35:45;10.30;99.90
44166;DHT22;30476;53.468;9.826;2023-04-16T00:38:12;10.20;99.90
44166;DHT22;30476;53.468;9.826;2023-04-16T00:40:38;10.20;99.90
44166;DHT22;30476;53.468;9.826;2023-04-16T00:43:04;10.20;99.90
44166;DHT22;30476;53.468;9.826;2023-04-16T00:45:30;10.20;99.90
44166;DHT22;30476;53.468;9.826;2023-04-16T00:47:57;10.10;99.90
44166;DHT22;30476;53.468;9.826;2023-04-16T00:50:23;10.10;99.90
44166;DHT22;30476;53.468;9.826;2023-04-16T00:52:49;10.10;99.90
44166;DHT22;30476;53.468;9.826;2023-04-16T00:55:15;10.10;99.90
44166;DHT22;30476;53.468;9.826;2023-04-16T00:57:44;10.10;99.90
44166;DHT22;30476;53.468;9.826;2023-04-16T01:00:10;10.10;99.90
44166;DHT22;30476;53.468;9.826;2023-04-16T01:02:36;10.10;99.90
44166;DHT22;30476;53.468;9.826;2023-04-16T01:05:03;10.00;99.90
44166;DHT22;30476;53.468;9.826;2023-04-16T01:07:29;10.00;99.90
44166;DHT22;30476;53.468;9.826;2023-04-16T01:09:55;9.90;99.90
44166;DHT22;30476;53.468;9.826;2023-04-16T01:12:21;9.90;99.90
44166;DHT22;30476;53.468;9.826;2023-04-16T01:14:47;9.90;99.90
44166;DHT22;30476;53.468;9.826;2023-04-16T01:17:13;9.90;99.90
44166;DHT22;30476;53.468;9.826;2023-04-16T01:19:39;9.90;99.90
44166;DHT22;30476;53.468;9.826;2023-04-16T01:22:05;9.90;99.90
44166;DHT22;30476;53.468;9.826;2023-04-16T01:24:31;9.90;99.90
44166;DHT22;30476;53.468;9.826;2023-04-16T01:26:57;9.90;99.90
44166;DHT22;30476;53.468;9.826;2023-04-16T01:29:24;9.80;99.90
44166;DHT22;30476;53.468;9.826;2023-04-16T01:31:50;9.80;99.90
44166;DHT22;30476;53.468;9.826;2023-04-16T01:34:16;9.80;99.90
44166;DHT22;30476;53.468;9.826;2023-04-16T01:36:41;9.80;99.90
44166;DHT22;30476;53.468;9.826;2023-04-16T01:39:07;9.80;99.90
44166;DHT22;30476;53.468;9.826;2023-04-16T01:41:36;9.80;99.90
44166;DHT22;30476;53.468;9.826;2023-04-16T01:44:02;9.80;99.90
44166;DHT22;30476;53.468;9.826;2023-04-16T01:46:30;9.80;99.90
44166;DHT22;30476;53.468;9.826;2023-04-16T01:48:57;9.80;99.90
44166;DHT22;30476;53.468;9.826;2023-04-16T01:51:23;9.80;99.90
44166;DHT22;30476;53.468;9.826;2023-04-16T01:53:49;9.80;99.90
44166;DHT22;30476;53.468;9.826;2023-04-16T01:56:15;9.80;99.90
44166;DHT22;30476;53.468;9.826;2023-04-16T01:58:41;9.70;99.90
44166;DHT22;30476;53.468;9.826;2023-04-16T02:01:08;9.70;99.90
44166;DHT22;30476;53.468;9.826;2023-04-16T02:03:34;9.80;99.90
44166;DHT22;30476;53.468;9.826;2023-04-16T02:06:00;9.80;99.90
44166;DHT22;30476;53.468;9.826;2023-04-16T02:08:26;9.70;99.90
44166;DHT22;30476;53.468;9.826;2023-04-16T02:10:52;9.80;99.90
44166;DHT22;30476;53.468;9.826;2023-04-16T02:13:18;9.80;99.90
44166;DHT22;30476;53.468;9.826;2023-04-16T02:15:48;9.80;99.90
44166;DHT22;30476;53.468;9.826;2023-04-16T02:18:14;9.70;99.90
44166;DHT22;30476;53.468;9.826;2023-04-16T02:20:44;9.80;99.90
44166;DHT22;30476;53.468;9.826;2023-04-16T02:23:11;9.80;99.90
44166;DHT22;30476;53.468;9.826;2023-04-16T02:25:38;9.80;99.90
44166;DHT22;30476;53.468;9.826;2023-04-16T02:28:09;9.80;99.90
44166;DHT22;30476;53.468;9.826;2023-04-16T02:30:36;9.80;99.90
44166;DHT22;30476;53.468;9.826;2023-04-16T02:33:07;9.80;99.90
44166;DHT22;30476;53.468;9.826;2023-04-16T02:35:33;9.80;99.90
44166;DHT22;30476;53.468;9.826;2023-04-16T02:38:00;9.80;99.90
44166;DHT22;30476;53.468;9.826;2023-04-16T02:40:26;9.80;99.90
44166;DHT22;30476;53.468;9.826;2023-04-16T02:42:52;9.80;99.90
44166;DHT22;30476;53.468;9.826;2023-04-16T02:45:19;9.80;99.90
44166;DHT22;30476;53.468;9.826;2023-04-16T02:47:44;9.80;99.90
44166;DHT22;30476;53.468;9.826;2023-04-16T02:50:10;9.80;99.90
44166;DHT22;30476;53.468;9.826;2023-04-16T02:52:36;9.90;99.90
44166;DHT22;30476;53.468;9.826;2023-04-16T02:55:02;9.80;99.90
44166;DHT22;30476;53.468;9.826;2023-04-16T02:57:28;9.80;99.90
44166;DHT22;30476;53.468;9.826;2023-04-16T02:59:53;9.80;99.90
44166;DHT22;30476;53.468;9.826;2023-04-16T03:02:19;9.80;99.90
44166;DHT22;30476;53.468;9.826;2023-04-16T03:04:45;9.80;99.90
44166;DHT22;30476;53.468;9.826;2023-04-16T03:07:11;9.80;99.90
44166;DHT22;30476;53.468;9.826;2023-04-16T03:09:37;9.80;99.90
44166;DHT22;30476;53.468;9.826;2023-04-16T03:12:03;9.80;99.90
44166;DHT22;30476;53.468;9.826;2023-04-16T03:14:29;9.80;99.90
44166;DHT22;30476;53.468;9.826;2023-04-16T03:16:56;9.90;99.90
44166;DHT22;30476;53.468;9.826;2023-04-16T03:19:22;9.80;99.90
44166;DHT22;30476;53.468;9.826;2023-04-16T03:21:48;9.80;99.90
44166;DHT22;30476;53.468;9.826;2023-04-16T03:24:13;9.80;99.90
44166;DHT22;30476;53.468;9.826;2023-04-16T03:26:39;9.90;99.90
44166;DHT22;30476;53.468;9.826;2023-04-16T03:29:05;9.90;99.90
44166;DHT22;30476;53.468;9.826;2023-04-16T03:31:31;9.90;99.90
44166;DHT22;30476;53.468;9.826;2023-04-16T03:33:57;9.90;99.90
44166;DHT22;30476;53.468;9.826;2023-04-16T03:36:22;9.90;99.90
44166;DHT22;30476;53.468;9.826;2023-04-16T03:38:48;9.90;99.90
44166;DHT22;30476;53.468;9.826;2023-04-16T03:41:14;9.90;99.90
44166;DHT22;30476;53.468;9.826;2023-04-16T03:43:40;9.90;99.90
44166;DHT22;30476;53.468;9.826;2023-04-16T03:46:06;9.90;99.90
44166;DHT22;30476;53.468;9.826;2023-04-16T03:48:31;9.90;99.90
44166;DHT22;30476;53.468;9.826;2023-04-16T03:50:57;9.90;99.90
44166;DHT22;30476;53.468;9.826;2023-04-16T03:53:23;9.90;99.90
44166;DHT22;30476;53.468;9.826;2023-04-16T03:55:50;9.80;99.90
44166;DHT22;30476;53.468;9.826;2023-04-16T03:58:16;9.90;99.90
44166;DHT22;30476;53.468;9.826;2023-04-16T04:00:42;9.80;99.90
44166;DHT22;30476;53.468;9.826;2023-04-16T04:03:09;9.90;99.90
44166;DHT22;30476;53.468;9.826;2023-04-16T04:05:39;9.90;99.90
44166;DHT22;30476;53.468;9.826;2023-04-16T04:08:05;9.90;99.90
44166;DHT22;30476;53.468;9.826;2023-04-16T04:10:32;9.90;99.90
44166;DHT22;30476;53.468;9.826;2023-04-16T04:12:59;9.90;99.90
44166;DHT22;30476;53.468;9.826;2023-04-16T04:15:25;9.90;99.90
44166;DHT22;30476;53.468;9.826;2023-04-16T04:17:51;9.90;99.90
44166;DHT22;30476;53.468;9.826;2023-04-16T04:20:16;9.90;99.90
44166;DHT22;30476;53.468;9.826;2023-04-16T04:22:42;9.90;99.90
44166;DHT22;30476;53.468;9.826;2023-04-16T04:25:11;9.90;99.90
44166;DHT22;30476;53.468;9.826;2023-04-16T04:27:37;9.90;99.90
44166;DHT22;30476;53.468;9.826;2023-04-16T04:30:03;9.90;99.90
44166;DHT22;30476;53.468;9.826;2023-04-16T04:32:29;9.90;99.90
44166;DHT22;30476;53.468;9.826;2023-04-16T04:34:56;9.90;99.90
44166;DHT22;30476;53.468;9.826;2023-04-16T04:37:22;9.90;99.90
44166;DHT22;30476;53.468;9.826;2023-04-16T04:39:47;9.90;99.90
44166;DHT22;30476;53.468;9.826;2023-04-16T04:42:17;9.90;99.90
44166;DHT22;30476;53.468;9.826;2023-04-16T04:44:44;9.90;99.90
44166;DHT22;30476;53.468;9.826;2023-04-16T04:47:10;10.00;99.90
44166;DHT22;30476;53.468;9.826;2023-04-16T04:49:36;10.00;99.90
44166;DHT22;30476;53.468;9.826;2023-04-16T04:52:02;10.00;99.90
44166;DHT22;30476;53.468;9.826;2023-04-16T04:54:29;10.10;99.90
44166;DHT22;30476;53.468;9.826;2023-04-16T04:56:55;10.10;99.90
44166;DHT22;30476;53.468;9.826;2023-04-16T04:59:21;10.10;99.90
44166;DHT22;30476;53.468;9.826;2023-04-16T05:01:47;10.10;99.90
44166;DHT22;30476;53.468;9.826;2023-04-16T05:04:13;10.20;99.90
44166;DHT22;30476;53.468;9.826;2023-04-16T05:06:39;10.20;99.90
44166;DHT22;30476;53.468;9.826;2023-04-16T05:09:05;10.20;99.90
44166;DHT22;30476;53.468;9.826;2023-04-16T05:11:32;10.20;99.90
44166;DHT22;30476;53.468;9.826;2023-04-16T05:13:58;10.20;99.90
44166;DHT22;30476;53.468;9.826;2023-04-16T05:16:24;10.20;99.90
44166;DHT22;30476;53.468;9.826;2023-04-16T05:18:50;10.20;99.90
44166;DHT22;30476;53.468;9.826;2023-04-16T05:21:16;10.20;99.90
44166;DHT22;30476;53.468;9.826;2023-04-16T05:23:41;10.20;99.90
44166;DHT22;30476;53.468;9.826;2023-04-16T05:26:07;10.30;99.90
44166;DHT22;30476;53.468;9.826;2023-04-16T05:28:33;10.30;99.90
44166;DHT22;30476;53.468;9.826;2023-04-16T05:30:58;10.30;99.90
44166;DHT22;30476;53.468;9.826;2023-04-16T05:33:24;10.30;99.90
44166;DHT22;30476;53.468;9.826;2023-04-16T05:35:50;10.30;99.90
44166;DHT22;30476;53.468;9.826;2023-04-16T05:38:16;10.30;99.90
44166;DHT22;30476;53.468;9.826;2023-04-16T05:40:41;10.30;99.90
44166;DHT22;30476;53.468;9.826;2023-04-16T05:43:07;10.30;99.90
44166;DHT22;30476;53.468;9.826;2023-04-16T05:45:33;10.30;99.90
44166;DHT22;30476;53.468;9.826;2023-04-16T05:48:04;10.40;99.90
44166;DHT22;30476;53.468;9.826;2023-04-16T05:50:30;10.40;99.90
44166;DHT22;30476;53.468;9.826;2023-04-16T05:52:56;10.40;99.90
44166;DHT22;30476;53.468;9.826;2023-04-16T05:55:22;10.40;99.90
44166;DHT22;30476;53.468;9.826;2023-04-16T05:57:48;10.40;99.90
44166;DHT22;30476;53.468;9.826;2023-04-16T06:00:14;10.40;99.90
44166;DHT22;30476;53.468;9.826;2023-04-16T06:02:39;10.40;99.90
44166;DHT22;30476;53.468;9.826;2023-04-16T06:05:05;10.40;99.90
44166;DHT22;30476;53.468;9.826;2023-04-16T06:07:31;10.40;99.90
44166;DHT22;30476;53.468;9.826;2023-04-16T06:09:57;10.40;99.90
44166;DHT22;30476;53.468;9.826;2023-04-16T06:12:23;10.50;99.90
44166;DHT22;30476;53.468;9.826;2023-04-16T06:14:48;10.50;99.90
44166;DHT22;30476;53.468;9.826;2023-04-16T06:17:14;10.50;99.90
44166;DHT22;30476;53.468;9.826;2023-04-16T06:19:40;10.50;99.90
44166;DHT22;30476;53.468;9.826;2023-04-16T06:22:06;10.50;99.90
44166;DHT22;30476;53.468;9.826;2023-04-16T06:24:32;10.50;99.90
44166;DHT22;30476;53.468;9.826;2023-04-16T06:26:58;10.60;99.90
44166;DHT22;30476;53.468;9.826;2023-04-16T06:29:23;10.60;99.90
44166;DHT22;30476;53.468;9.826;2023-04-16T06:31:49;10.60;99.90
44166;DHT22;30476;53.468;9.826;2023-04-16T06:34:15;10.70;99.90
44166;DHT22;30476;53.468;9.826;2023-04-16T06:36:41;10.70;99.90
44166;DHT22;30476;53.468;9.826;2023-04-16T06:39:06;10.70;99.90
44166;DHT22;30476;53.468;9.826;2023-04-16T06:41:32;10.70;99.90
44166;DHT22;30476;53.468;9.826;2023-04-16T06:43:58;10.70;99.90
44166;DHT22;30476;53.468;9.826;2023-04-16T06:46:24;10.80;99.90
44166;DHT22;30476;53.468;9.826;2023-04-16T06:48:49;10.80;99.90
44166;DHT22;30476;53.468;9.826;2023-04-16T06:51:15;10.80;99.90
44166;DHT22;30476;53.468;9.826;2023-04-16T06:53:41;10.90;99.90
44166;DHT22;30476;53.468;9.826;2023-04-16T06:56:07;10.90;99.90
44166;DHT22;30476;53.468;9.826;2023-04-16T06:58:32;10.90;99.90
44166;DHT22;30476;53.468;9.826;2023-04-16T07:00:58;10.90;99.90
44166;DHT22;30476;53.468;9.826;2023-04-16T07:03:24;10.90;99.90
44166;DHT22;30476;53.468;9.826;2023-04-16T07:05:50;10.90;99.90
44166;DHT22;30476;53.468;9.826;2023-04-16T07:08:16;10.80;99.90
44166;DHT22;30476;53.468;9.826;2023-04-16T07:10:42;10.90;99.90
44166;DHT22;30476;53.468;9.826;2023-04-16T07:13:08;10.90;99.90
44166;DHT22;30476;53.468;9.826;2023-04-16T07:15:33;10.90;99.90
44166;DHT22;30476;53.468;9.826;2023-04-16T07:17:59;10.80;99.90
44166;DHT22;30476;53.468;9.826;2023-04-16T07:20:25;10.90;99.90
44166;DHT22;30476;53.468;9.826;2023-04-16T07:22:51;10.90;99.90
44166;DHT22;30476;53.468;9.826;2023-04-16T07:25:17;10.90;99.90
44166;DHT22;30476;53.468;9.826;2023-04-16T07:27:42;10.90;99.90
44166;DHT22;30476;53.468;9.826;2023-04-16T07:30:08;10.90;99.90
44166;DHT22;30476;53.468;9.826;2023-04-16T07:32:34;10.90;99.90
44166;DHT22;30476;53.468;9.826;2023-04-16T07:35:00;10.90;99.90
44166;DHT22;30476;53.468;9.826;2023-04-16T07:37:26;11.00;99.90
44166;DHT22;30476;53.468;9.826;2023-04-16T07:39:51;11.00;99.90
44166;DHT22;30476;53.468;9.826;2023-04-16T07:42:17;11.10;99.90
44166;DHT22;30476;53.468;9.826;2023-04-16T07:44:43;11.10;99.90
44166;DHT22;30476;53.468;9.826;2023-04-16T07:47:09;11.10;99.90
44166;DHT22;30476;53.468;9.826;2023-04-16T07:49:35;11.20;99.90
44166;DHT22;30476;53.468;9.826;2023-04-16T07:52:01;11.20;99.90
44166;DHT22;30476;53.468;9.826;2023-04-16T07:54:26;11.20;99.90
44166;DHT22;30476;53.468;9.826;2023-04-16T07:56:52;11.30;99.90
44166;DHT22;30476;53.468;9.826;2023-04-16T07:59:18;11.30;99.90
44166;DHT22;30476;53.468;9.826;2023-04-16T08:01:44;11.30;99.90
44166;DHT22;30476;53.468;9.826;2023-04-16T08:04:09;11.40;99.90
44166;DHT22;30476;53.468;9.826;2023-04-16T08:06:35;11.50;99.90
44166;DHT22;30476;53.468;9.826;2023-04-16T08:09:02;11.50;99.90
44166;DHT22;30476;53.468;9.826;2023-04-16T08:11:28;11.60;99.90
44166;DHT22;30476;53.468;9.826;2023-04-16T08:13:53;11.60;99.90
44166;DHT22;30476;53.468;9.826;2023-04-16T08:16:19;11.60;99.90
44166;DHT22;30476;53.468;9.826;2023-04-16T08:18:45;11.70;99.90
44166;DHT22;30476;53.468;9.826;2023-04-16T08:21:11;11.70;99.90
44166;DHT22;30476;53.468;9.826;2023-04-16T08:23:37;11.70;99.90
44166;DHT22;30476;53.468;9.826;2023-04-16T08:26:02;11.80;99.90
44166;DHT22;30476;53.468;9.826;2023-04-16T08:28:28;11.80;99.90
44166;DHT22;30476;53.468;9.826;2023-04-16T08:30:54;11.80;99.90
44166;DHT22;30476;53.468;9.826;2023-04-16T08:33:20;11.90;99.90
44166;DHT22;30476;53.468;9.826;2023-04-16T08:35:46;11.80;99.90
44166;DHT22;30476;53.468;9.826;2023-04-16T08:38:12;11.90;99.90
44166;DHT22;30476;53.468;9.826;2023-04-16T08:40:39;11.90;99.90
44166;DHT22;30476;53.468;9.826;2023-04-16T08:43:09;12.00;99.90
44166;DHT22;30476;53.468;9.826;2023-04-16T08:45:40;12.00;99.90
44166;DHT22;30476;53.468;9.826;2023-04-16T08:48:07;12.10;99.90
44166;DHT22;30476;53.468;9.826;2023-04-16T08:50:35;12.00;99.90
44166;DHT22;30476;53.468;9.826;2023-04-16T08:53:05;12.10;99.90
44166;DHT22;30476;53.468;9.826;2023-04-16T08:55:42;12.20;99.90
44166;DHT22;30476;53.468;9.826;2023-04-16T08:58:17;12.30;99.90
44166;DHT22;30476;53.468;9.826;2023-04-16T09:00:43;12.30;99.90
44166;DHT22;30476;53.468;9.826;2023-04-16T09:03:11;12.40;99.90
44166;DHT22;30476;53.468;9.826;2023-04-16T09:05:37;12.50;99.90
44166;DHT22;30476;53.468;9.826;2023-04-16T09:08:05;12.50;99.90
44166;DHT22;30476;53.468;9.826;2023-04-16T09:10:31;12.60;99.90
44166;DHT22;30476;53.468;9.826;2023-04-16T09:12:57;12.60;99.90
44166;DHT22;30476;53.468;9.826;2023-04-16T09:15:24;12.70;99.90
44166;DHT22;30476;53.468;9.826;2023-04-16T09:17:50;12.70;99.90
44166;DHT22;30476;53.468;9.826;2023-04-16T09:20:18;12.80;99.90
44166;DHT22;30476;53.468;9.826;2023-04-16T09:22:44;12.90;99.90
44166;DHT22;30476;53.468;9.826;2023-04-16T09:25:11;13.00;99.90
44166;DHT22;30476;53.468;9.826;2023-04-16T09:27:38;13.10;99.90
44166;DHT22;30476;53.468;9.826;2023-04-16T09:30:24;13.20;99.90
44166;DHT22;30476;53.468;9.826;2023-04-16T09:32:51;13.30;99.90
44166;DHT22;30476;53.468;9.826;2023-04-16T09:35:20;13.40;99.90
44166;DHT22;30476;53.468;9.826;2023-04-16T09:37:56;13.50;99.90
44166;DHT22;30476;53.468;9.826;2023-04-16T09:40:26;13.60;99.90
44166;DHT22;30476;53.468;9.826;2023-04-16T09:42:56;13.60;99.90
44166;DHT22;30476;53.468;9.826;2023-04-16T09:45:22;13.60;99.90
44166;DHT22;30476;53.468;9.826;2023-04-16T09:47:48;13.70;99.90
44166;DHT22;30476;53.468;9.826;2023-04-16T09:50:16;13.70;99.90
44166;DHT22;30476;53.468;9.826;2023-04-16T09:52:48;13.70;99.90
44166;DHT22;30476;53.468;9.826;2023-04-16T09:55:15;13.70;99.90
44166;DHT22;30476;53.468;9.826;2023-04-16T09:57:41;13.70;99.90
44166;DHT22;30476;53.468;9.826;2023-04-16T10:00:08;13.70;99.90
44166;DHT22;30476;53.468;9.826;2023-04-16T10:02:35;13.80;99.90
44166;DHT22;30476;53.468;9.826;2023-04-16T10:05:03;13.80;99.90
44166;DHT22;30476;53.468;9.826;2023-04-16T10:07:33;13.90;99.90
44166;DHT22;30476;53.468;9.826;2023-04-16T10:09:59;13.90;99.90
44166;DHT22;30476;53.468;9.826;2023-04-16T10:12:25;14.00;99.90
44166;DHT22;30476;53.468;9.826;2023-04-16T10:14:53;14.20;99.90
44166;DHT22;30476;53.468;9.826;2023-04-16T10:17:20;14.20;99.90
44166;DHT22;30476;53.468;9.826;2023-04-16T10:19:46;14.30;99.90
44166;DHT22;30476;53.468;9.826;2023-04-16T10:22:12;14.40;99.90
44166;DHT22;30476;53.468;9.826;2023-04-16T10:24:40;14.40;99.90
44166;DHT22;30476;53.468;9.826;2023-04-16T10:27:06;14.40;99.90
44166;DHT22;30476;53.468;9.826;2023-04-16T10:29:32;14.40;99.90
44166;DHT22;30476;53.468;9.826;2023-04-16T10:31:58;14.30;99.90
44166;DHT22;30476;53.468;9.826;2023-04-16T10:34:26;14.30;99.90
44166;DHT22;30476;53.468;9.826;2023-04-16T10:36:53;14.20;99.90
44166;DHT22;30476;53.468;9.826;2023-04-16T10:39:24;14.20;99.90
44166;DHT22;30476;53.468;9.826;2023-04-16T10:42:09;14.20;99.90
44166;DHT22;30476;53.468;9.826;2023-04-16T10:44:36;14.10;99.90
44166;DHT22;30476;53.468;9.826;2023-04-16T10:47:09;14.00;99.90
44166;DHT22;30476;53.468;9.826;2023-04-16T10:49:36;13.90;99.90
44166;DHT22;30476;53.468;9.826;2023-04-16T10:52:12;13.90;99.90
44166;DHT22;30476;53.468;9.826;2023-04-16T10:54:38;13.90;99.90
44166;DHT22;30476;53.468;9.826;2023-04-16T10:57:06;13.90;99.90
44166;DHT22;30476;53.468;9.826;2023-04-16T10:59:34;13.90;99.90
44166;DHT22;30476;53.468;9.826;2023-04-16T11:02:06;13.90;99.90
44166;DHT22;30476;53.468;9.826;2023-04-16T11:04:35;13.90;99.90
44166;DHT22;30476;53.468;9.826;2023-04-16T11:09:55;13.80;99.90
44166;DHT22;30476;53.468;9.826;2023-04-16T11:12:26;13.90;99.90
44166;DHT22;30476;53.468;9.826;2023-04-16T11:15:14;13.80;99.90
44166;DHT22;30476;53.468;9.826;2023-04-16T11:17:43;13.90;99.90
44166;DHT22;30476;53.468;9.826;2023-04-16T11:20:15;13.80;99.90
44166;DHT22;30476;53.468;9.826;2023-04-16T11:22:41;13.80;99.90
44166;DHT22;30476;53.468;9.826;2023-04-16T11:25:07;13.90;99.90
44166;DHT22;30476;53.468;9.826;2023-04-16T11:27:33;13.80;99.90
44166;DHT22;30476;53.468;9.826;2023-04-16T11:30:06;13.90;99.90
44166;DHT22;30476;53.468;9.826;2023-04-16T11:32:37;13.90;99.90
44166;DHT22;30476;53.468;9.826;2023-04-16T11:35:16;14.00;99.90
44166;DHT22;30476;53.468;9.826;2023-04-16T11:37:42;14.00;99.90
44166;DHT22;30476;53.468;9.826;2023-04-16T11:40:09;14.00;99.90
44166;DHT22;30476;53.468;9.826;2023-04-16T11:42:36;14.00;99.90
44166;DHT22;30476;53.468;9.826;2023-04-16T11:45:03;14.10;99.90
44166;DHT22;30476;53.468;9.826;2023-04-16T11:47:30;14.10;99.90
44166;DHT22;30476;53.468;9.826;2023-04-16T11:50:14;14.10;99.90
44166;DHT22;30476;53.468;9.826;2023-04-16T11:52:40;14.10;99.90
44166;DHT22;30476;53.468;9.826;2023-04-16T11:55:06;14.10;99.90
44166;DHT22;30476;53.468;9.826;2023-04-16T11:57:31;14.00;99.90
44166;DHT22;30476;53.468;9.826;2023-04-16T11:59:58;14.00;99.90
44166;DHT22;30476;53.468;9.826;2023-04-16T12:02:38;14.00;99.90
44166;DHT22;30476;53.468;9.826;2023-04-16T12:05:31;14.00;99.90
44166;DHT22;30476;53.468;9.826;2023-04-16T12:08:06;14.10;99.90
44166;DHT22;30476;53.468;9.826;2023-04-16T12:10:33;14.10;99.90
44166;DHT22;30476;53.468;9.826;2023-04-16T12:13:13;14.20;99.90
44166;DHT22;30476;53.468;9.826;2023-04-16T12:15:43;14.20;99.90
44166;DHT22;30476;53.468;9.826;2023-04-16T12:18:09;14.30;99.90
44166;DHT22;30476;53.468;9.826;2023-04-16T12:20:39;14.40;99.90
44166;DHT22;30476;53.468;9.826;2023-04-16T12:23:13;14.40;99.90
44166;DHT22;30476;53.468;9.826;2023-04-16T12:25:46;14.50;99.90
44166;DHT22;30476;53.468;9.826;2023-04-16T12:28:25;14.50;99.90
44166;DHT22;30476;53.468;9.826;2023-04-16T12:30:51;14.40;99.90
44166;DHT22;30476;53.468;9.826;2023-04-16T12:33:18;14.40;99.90
44166;DHT22;30476;53.468;9.826;2023-04-16T12:35:44;14.40;99.90
44166;DHT22;30476;53.468;9.826;2023-04-16T12:38:10;14.40;99.90
44166;DHT22;30476;53.468;9.826;2023-04-16T12:40:37;14.30;99.90
44166;DHT22;30476;53.468;9.826;2023-04-16T12:43:03;14.30;99.90
44166;DHT22;30476;53.468;9.826;2023-04-16T12:45:28;14.30;99.90
44166;DHT22;30476;53.468;9.826;2023-04-16T12:47:54;14.30;99.90
44166;DHT22;30476;53.468;9.826;2023-04-16T12:50:21;14.30;99.90
44166;DHT22;30476;53.468;9.826;2023-04-16T12:52:47;14.20;99.90
44166;DHT22;30476;53.468;9.826;2023-04-16T12:55:13;14.30;99.90
44166;DHT22;30476;53.468;9.826;2023-04-16T12:57:39;14.20;99.90
44166;DHT22;30476;53.468;9.826;2023-04-16T13:00:05;14.20;99.90
44166;DHT22;30476;53.468;9.826;2023-04-16T13:02:32;14.20;99.90
44166;DHT22;30476;53.468;9.826;2023-04-16T13:04:58;14.20;99.90
44166;DHT22;30476;53.468;9.826;2023-04-16T13:07:24;14.20;99.90
44166;DHT22;30476;53.468;9.826;2023-04-16T13:09:51;14.20;99.90
44166;DHT22;30476;53.468;9.826;2023-04-16T13:12:17;14.10;99.90
44166;DHT22;30476;53.468;9.826;2023-04-16T13:14:43;14.10;99.90
44166;DHT22;30476;53.468;9.826;2023-04-16T13:17:09;14.10;99.90
44166;DHT22;30476;53.468;9.826;2023-04-16T13:19:35;14.10;99.90
44166;DHT22;30476;53.468;9.826;2023-04-16T13:22:01;14.10;99.90
44166;DHT22;30476;53.468;9.826;2023-04-16T13:24:26;14.00;99.90
44166;DHT22;30476;53.468;9.826;2023-04-16T13:26:52;14.00;99.90
44166;DHT22;30476;53.468;9.826;2023-04-16T13:29:19;14.00;99.90
44166;DHT22;30476;53.468;9.826;2023-04-16T13:31:46;14.00;99.90
44166;DHT22;30476;53.468;9.826;2023-04-16T13:34:11;14.00;99.90
44166;DHT22;30476;53.468;9.826;2023-04-16T13:36:37;14.00;99.90
44166;DHT22;30476;53.468;9.826;2023-04-16T13:39:03;14.00;99.90
44166;DHT22;30476;53.468;9.826;2023-04-16T13:41:38;14.00;99.90
44166;DHT22;30476;53.468;9.826;2023-04-16T13:44:04;14.00;99.90
44166;DHT22;30476;53.468;9.826;2023-04-16T13:46:31;14.00;99.90
44166;DHT22;30476;53.468;9.826;2023-04-16T13:48:56;14.00;99.90
44166;DHT22;30476;53.468;9.826;2023-04-16T13:51:22;14.00;99.90
44166;DHT22;30476;53.468;9.826;2023-04-16T13:53:48;14.00;99.90
44166;DHT22;30476;53.468;9.826;2023-04-16T13:56:14;14.00;99.90
44166;DHT22;30476;53.468;9.826;2023-04-16T13:58:40;14.00;99.90
44166;DHT22;30476;53.468;9.826;2023-04-16T14:01:06;14.00;99.90
44166;DHT22;30476;53.468;9.826;2023-04-16T14:03:32;14.00;99.90
44166;DHT22;30476;53.468;9.826;2023-04-16T14:06:01;13.90;99.90
44166;DHT22;30476;53.468;9.826;2023-04-16T14:08:27;13.90;99.90
44166;DHT22;30476;53.468;9.826;2023-04-16T14:10:53;13.90;99.90
44166;DHT22;30476;53.468;9.826;2023-04-16T14:13:19;13.90;99.90
44166;DHT22;30476;53.468;9.826;2023-04-16T14:15:45;13.90;99.90
44166;DHT22;30476;53.468;9.826;2023-04-16T14:18:11;13.80;99.90
44166;DHT22;30476;53.468;9.826;2023-04-16T14:20:36;13.70;99.90
44166;DHT22;30476;53.468;9.826;2023-04-16T14:23:04;13.70;99.90
44166;DHT22;30476;53.468;9.826;2023-04-16T14:25:30;13.70;99.90
44166;DHT22;30476;53.468;9.826;2023-04-16T14:27:58;13.60;99.90
44166;DHT22;30476;53.468;9.826;2023-04-16T14:30:24;13.60;99.90
44166;DHT22;30476;53.468;9.826;2023-04-16T14:32:49;13.60;99.90
44166;DHT22;30476;53.468;9.826;2023-04-16T14:35:15;13.60;99.90
44166;DHT22;30476;53.468;9.826;2023-04-16T14:37:41;13.50;99.90
44166;DHT22;30476;53.468;9.826;2023-04-16T14:40:07;13.50;99.90
44166;DHT22;30476;53.468;9.826;2023-04-16T14:42:35;13.40;99.90
44166;DHT22;30476;53.468;9.826;2023-04-16T14:45:04;13.40;99.90
44166;DHT22;30476;53.468;9.826;2023-04-16T14:47:32;13.40;99.90
44166;DHT22;30476;53.468;9.826;2023-04-16T14:49:59;13.40;99.90
44166;DHT22;30476;53.468;9.826;2023-04-16T14:52:25;13.30;99.90
44166;DHT22;30476;53.468;9.826;2023-04-16T14:54:53;13.30;99.90
44166;DHT22;30476;53.468;9.826;2023-04-16T14:57:20;13.30;99.90
44166;DHT22;30476;53.468;9.826;2023-04-16T14:59:46;13.40;99.90
44166;DHT22;30476;53.468;9.826;2023-04-16T15:02:13;13.30;99.90
44166;DHT22;30476;53.468;9.826;2023-04-16T15:04:39;13.30;99.90
44166;DHT22;30476;53.468;9.826;2023-04-16T15:07:05;13.20;99.90
44166;DHT22;30476;53.468;9.826;2023-04-16T15:09:33;13.20;99.90
44166;DHT22;30476;53.468;9.826;2023-04-16T15:11:59;13.30;99.90
44166;DHT22;30476;53.468;9.826;2023-04-16T15:14:25;13.20;99.90
44166;DHT22;30476;53.468;9.826;2023-04-16T15:16:51;13.30;99.90
44166;DHT22;30476;53.468;9.826;2023-04-16T15:19:17;13.20;99.90
44166;DHT22;30476;53.468;9.826;2023-04-16T15:21:43;13.10;99.90
44166;DHT22;30476;53.468;9.826;2023-04-16T15:24:09;13.10;99.90
44166;DHT22;30476;53.468;9.826;2023-04-16T15:26:35;13.10;99.90
44166;DHT22;30476;53.468;9.826;2023-04-16T15:29:01;13.10;99.90
44166;DHT22;30476;53.468;9.826;2023-04-16T15:31:26;13.10;99.90
44166;DHT22;30476;53.468;9.826;2023-04-16T15:33:52;13.00;99.90
44166;DHT22;30476;53.468;9.826;2023-04-16T15:36:19;13.10;99.90